createdAt,value
2019-03-03T00:01:50.809Z,100070.30
2019-03-03T00:06:54.388Z,100055.81
2019-03-03T00:11:57.943Z,100050.72
2019-03-03T00:17:01.504Z,100058.41
2019-03-03T00:22:05.164Z,100049.16
2019-03-03T00:27:08.718Z,100053.98
2019-03-03T00:32:12.789Z,100041.93
2019-03-03T00:37:23.833Z,100022.07
2019-03-03T00:42:45.103Z,100038.38
2019-03-03T00:48:06.029Z,100028.14
2019-03-03T00:53:11.197Z,100024.52
2019-03-03T00:58:16.327Z,100017.83
2019-03-03T01:03:24.217Z,100010.11
2019-03-03T01:08:29.362Z,100004.38
2019-03-03T01:13:40.553Z,99997.59
2019-03-03T01:18:54.458Z,99989.34
2019-03-03T01:24:15.894Z,99988.13
2019-03-03T01:29:19.450Z,99979.36
2019-03-03T01:34:22.980Z,99987.98
2019-03-03T01:39:26.539Z,99977.33
2019-03-03T01:44:30.085Z,99977.33
2019-03-03T01:49:33.651Z,99973.12
2019-03-03T01:54:37.176Z,99966.86
2019-03-03T01:59:40.757Z,99964.44
2019-03-03T02:04:44.395Z,99954.20
2019-03-03T02:09:47.934Z,99960.22
2019-03-03T02:14:51.489Z,99954.84
2019-03-03T02:19:55.013Z,99957.39
2019-03-03T02:24:58.556Z,99947.23
2019-03-03T02:30:02.130Z,99934.20
2019-03-03T02:35:05.762Z,99913.11
2019-03-03T02:40:12.265Z,99920.95
2019-03-03T02:45:16.284Z,99916.39
2019-03-03T02:50:20.186Z,99906.29
2019-03-03T02:55:23.733Z,99909.56
2019-03-03T03:00:27.295Z,99897.92
2019-03-03T03:05:48.642Z,99893.45
2019-03-03T03:10:56.561Z,99890.30
2019-03-03T03:16:01.735Z,99884.61
2019-03-03T03:21:12.847Z,99879.91
2019-03-03T03:26:18.100Z,99876.84
2019-03-03T03:31:29.236Z,99877.28
2019-03-03T03:36:36.634Z,99877.86
2019-03-03T03:41:41.187Z,99879.05
2019-03-03T03:46:52.867Z,99872.81
2019-03-03T03:51:57.989Z,99865.22
2019-03-03T03:57:06.102Z,99867.78
2019-03-03T04:02:23.269Z,99860.52
2019-03-03T04:07:36.908Z,99862.00
2019-03-03T04:12:42.036Z,99854.78
2019-03-03T04:17:53.159Z,99841.56
2019-03-03T04:23:01.086Z,99835.41
2019-03-03T04:28:09.387Z,99830.02
2019-03-03T04:33:14.503Z,99828.96
2019-03-03T04:38:19.630Z,99827.17
2019-03-03T04:43:24.742Z,99826.36
2019-03-03T04:48:29.888Z,99817.62
2019-03-03T04:53:34.990Z,99819.19
2019-03-03T04:58:46.102Z,99802.58
2019-03-03T05:03:51.212Z,99808.85
2019-03-03T05:08:56.333Z,99803.91
2019-03-03T05:14:01.471Z,99799.18
2019-03-03T05:19:06.596Z,99791.34
2019-03-03T05:24:10.162Z,99797.58
2019-03-03T05:29:13.750Z,99794.95
2019-03-03T05:34:17.275Z,99798.22
2019-03-03T05:39:20.858Z,99806.89
2019-03-03T05:44:24.418Z,99804.09
2019-03-03T05:49:27.986Z,99797.34
2019-03-03T05:54:31.696Z,99797.88
2019-03-03T05:59:35.251Z,99797.88
2019-03-03T06:04:38.821Z,99796.16
2019-03-03T06:09:42.357Z,99796.57
2019-03-03T06:14:45.899Z,99793.66
2019-03-03T06:19:49.465Z,99791.09
2019-03-03T06:24:53.036Z,99793.17
2019-03-03T06:29:56.565Z,99791.65
2019-03-03T06:35:00.310Z,99802.02
2019-03-03T06:40:07.196Z,99804.39
2019-03-03T06:45:13.362Z,99808.19
2019-03-03T06:50:16.930Z,99806.92
2019-03-03T06:55:21.421Z,99799.16
2019-03-03T07:00:24.996Z,99791.78
2019-03-03T07:05:28.596Z,99784.30
2019-03-03T07:10:32.175Z,99777.55
2019-03-03T07:15:35.728Z,99763.25
2019-03-03T07:20:39.278Z,99766.28
2019-03-03T07:25:42.895Z,99756.96
2019-03-03T07:30:46.448Z,99761.64
2019-03-03T07:35:49.993Z,99752.89
2019-03-03T07:40:53.594Z,99752.17
2019-03-03T07:45:57.143Z,99749.98
2019-03-03T07:51:00.721Z,99745.27
2019-03-03T07:56:04.937Z,99746.78
2019-03-03T08:01:08.510Z,99743.67
2019-03-03T08:06:13.078Z,99719.78
2019-03-03T08:11:16.608Z,99720.36
2019-03-03T08:16:20.157Z,99715.08
2019-03-03T08:21:23.777Z,99716.42
2019-03-03T08:26:27.311Z,99709.58
2019-03-03T08:31:30.895Z,99710.81
2019-03-03T08:36:34.446Z,99716.84
2019-03-03T08:41:39.583Z,99698.33
2019-03-03T08:46:50.960Z,99695.00
2019-03-03T08:52:02.061Z,99701.41
2019-03-03T08:57:10.110Z,99693.03
2019-03-03T09:02:17.693Z,99693.95
2019-03-03T09:07:34.857Z,99692.44
2019-03-03T09:12:42.990Z,99693.95
2019-03-03T09:18:00.214Z,99693.35
2019-03-03T09:23:06.403Z,99683.04
2019-03-03T09:28:14.563Z,99679.08
2019-03-03T09:33:28.854Z,99675.96
2019-03-03T09:38:34.013Z,99668.94
2019-03-03T09:43:41.915Z,99665.45
2019-03-03T09:48:49.861Z,99656.29
2019-03-03T09:54:11.145Z,99653.66
2019-03-03T09:59:32.680Z,99654.95
2019-03-03T10:04:54.484Z,99661.53
2019-03-03T10:10:02.423Z,99644.73
2019-03-03T10:15:10.285Z,99633.72
2019-03-03T10:20:18.296Z,99629.38
2019-03-03T10:25:26.089Z,99624.32
2019-03-03T10:30:47.981Z,99613.14
2019-03-03T10:35:53.119Z,99600.01
2019-03-03T10:41:14.654Z,99600.01
2019-03-03T10:46:19.804Z,99604.53
2019-03-03T10:51:37.268Z,99610.06
2019-03-03T10:56:57.498Z,99625.11
2019-03-03T11:02:18.869Z,99614.08
2019-03-03T11:07:23.984Z,99624.16
2019-03-03T11:12:38.364Z,99628.59
2019-03-03T11:17:43.774Z,99622.45
2019-03-03T11:22:51.927Z,99624.14
2019-03-03T11:28:00.470Z,99617.81
2019-03-03T11:33:20.865Z,99602.27
2019-03-03T11:38:44.269Z,99600.88
2019-03-03T11:43:55.827Z,99603.91
2019-03-03T11:49:01.008Z,99600.53
2019-03-03T11:54:06.648Z,99611.52
2019-03-03T11:59:30.456Z,99607.98
2019-03-03T12:04:35.640Z,99591.73
2019-03-03T12:09:52.716Z,99598.75
2019-03-03T12:15:00.732Z,99575.08
2019-03-03T12:20:10.075Z,99580.37
2019-03-03T12:25:17.844Z,99572.42
2019-03-03T12:30:25.886Z,99579.89
2019-03-03T12:35:46.292Z,99549.23
2019-03-03T12:40:51.493Z,99566.30
2019-03-03T12:46:02.482Z,99570.27
2019-03-03T12:51:07.764Z,99558.00
2019-03-03T12:56:22.474Z,99533.86
2019-03-03T13:01:42.810Z,99534.72
2019-03-03T13:06:48.105Z,99528.17
2019-03-03T13:11:53.869Z,99526.80
2019-03-03T13:17:14.405Z,99528.19
2019-03-03T13:22:25.636Z,99516.79
2019-03-03T13:27:47.112Z,99508.88
2019-03-03T13:32:52.254Z,99512.31
2019-03-03T13:37:57.952Z,99496.63
2019-03-03T13:43:01.495Z,99504.04
2019-03-03T13:48:05.064Z,99499.23
2019-03-03T13:53:08.610Z,99487.41
2019-03-03T13:58:12.152Z,99479.53
2019-03-03T14:03:15.723Z,99481.70
2019-03-03T14:08:19.360Z,99473.39
2019-03-03T14:13:23.291Z,99473.34
2019-03-03T14:18:26.927Z,99472.88
2019-03-03T14:23:32.171Z,99474.22
2019-03-03T14:28:36.339Z,99470.26
2019-03-03T14:33:41.482Z,99464.12
2019-03-03T14:38:45.099Z,99456.23
2019-03-03T14:43:48.651Z,99455.30
2019-03-03T14:48:52.190Z,99447.02
2019-03-03T14:53:55.786Z,99459.24
2019-03-03T14:58:59.738Z,99449.58
2019-03-03T15:04:03.335Z,99441.66
2019-03-03T15:09:08.681Z,99444.33
2019-03-03T15:14:12.429Z,99436.02
2019-03-03T15:19:16.858Z,99430.70
2019-03-03T15:24:23.457Z,99431.14
2019-03-03T15:29:27.198Z,99435.08
2019-03-03T15:34:30.737Z,99432.89
2019-03-03T15:39:34.544Z,99433.70
2019-03-03T15:44:38.204Z,99430.17
2019-03-03T15:49:41.943Z,99432.34
2019-03-03T15:54:45.506Z,99428.41
2019-03-03T15:59:49.130Z,99415.72
2019-03-03T16:04:52.739Z,99416.45
2019-03-03T16:09:57.135Z,99407.27
2019-03-03T16:15:00.712Z,99409.48
2019-03-03T16:20:07.231Z,99402.92
2019-03-03T16:25:13.597Z,99406.71
2019-03-03T16:30:18.667Z,99402.34
2019-03-03T16:35:22.314Z,99404.53
2019-03-03T16:40:26.477Z,99402.74
2019-03-03T16:45:30.174Z,99412.25
2019-03-03T16:50:33.789Z,99408.39
2019-03-03T16:55:37.521Z,99400.84
2019-03-03T17:00:41.061Z,99404.34
2019-03-03T17:05:44.636Z,99408.28
2019-03-03T17:10:48.342Z,99405.22
2019-03-03T17:15:51.889Z,99398.59
2019-03-03T17:20:55.490Z,99396.76
2019-03-03T17:25:59.009Z,99402.95
2019-03-03T17:31:02.647Z,99408.28
2019-03-03T17:36:06.205Z,99402.95
2019-03-03T17:41:09.892Z,99408.50
2019-03-03T17:46:13.418Z,99393.61
2019-03-03T17:51:17.020Z,99380.47
2019-03-03T17:56:20.640Z,99380.16
2019-03-03T18:01:24.280Z,99365.70
2019-03-03T18:06:27.988Z,99362.69
2019-03-03T18:11:31.646Z,99359.55
2019-03-03T18:16:35.234Z,99353.00
2019-03-03T18:21:39.078Z,99350.53
2019-03-03T18:26:42.910Z,99350.42
2019-03-03T18:31:46.450Z,99347.80
2019-03-03T18:36:50.109Z,99334.74
2019-03-03T18:41:53.787Z,99331.64
2019-03-03T18:46:57.393Z,99316.72
2019-03-03T18:52:00.963Z,99329.89
2019-03-03T18:57:06.202Z,99335.10
2019-03-03T19:02:09.780Z,99326.84
2019-03-03T19:07:13.392Z,99329.42
2019-03-03T19:12:19.554Z,99328.03
2019-03-03T19:17:23.117Z,99331.56
2019-03-03T19:22:26.716Z,99321.59
2019-03-03T19:27:30.303Z,99301.44
2019-03-03T19:32:33.857Z,99300.96
2019-03-03T19:37:43.143Z,99306.24
2019-03-03T19:42:47.128Z,99304.45
2019-03-03T19:47:50.681Z,99303.11
2019-03-03T19:52:54.250Z,99297.91
2019-03-03T19:57:57.863Z,99293.06
2019-03-03T20:03:01.426Z,99293.50
2019-03-03T20:08:05.507Z,99288.26
2019-03-03T20:13:09.321Z,99287.34
2019-03-03T20:18:12.867Z,99282.55
2019-03-03T20:23:16.490Z,99282.07
2019-03-03T20:28:20.111Z,99275.84
2019-03-03T20:33:23.661Z,99272.03
2019-03-03T20:38:27.413Z,99272.42
2019-03-03T20:43:31.084Z,99254.97
2019-03-03T20:48:35.026Z,99254.53
2019-03-03T20:53:38.611Z,99253.70
2019-03-03T20:58:42.301Z,99259.81
2019-03-03T21:03:46.073Z,99242.27
2019-03-03T21:08:50.056Z,99242.75
2019-03-03T21:13:53.612Z,99233.07
2019-03-03T21:18:57.392Z,99227.75
2019-03-03T21:24:01.150Z,99227.75
2019-03-03T21:29:05.122Z,99222.44
2019-03-03T21:34:08.830Z,99179.47
2019-03-03T21:39:12.621Z,99207.09
2019-03-03T21:44:16.416Z,99201.41
2019-03-03T21:49:20.375Z,99194.44
2019-03-03T21:54:24.541Z,99189.64
2019-03-03T21:59:29.053Z,99184.36
2019-03-03T22:04:32.780Z,99186.11
2019-03-03T22:09:39.265Z,99185.23
2019-03-03T22:14:42.907Z,99180.30
2019-03-03T22:19:46.892Z,99173.45
2019-03-03T22:24:51.183Z,99166.08
2019-03-03T22:29:54.951Z,99162.98
2019-03-03T22:34:58.581Z,99167.03
2019-03-03T22:40:02.158Z,99149.91
2019-03-03T22:45:08.990Z,99146.72
2019-03-03T22:50:16.968Z,99154.96
2019-03-03T22:55:21.446Z,99147.98
2019-03-03T23:00:56.145Z,99150.56
2019-03-03T23:06:08.605Z,99158.41
2019-03-03T23:11:30.284Z,99156.88
2019-03-03T23:16:48.832Z,99145.02
2019-03-03T23:21:58.139Z,99135.48
2019-03-03T23:27:01.678Z,99129.72
2019-03-03T23:32:05.230Z,99124.54
2019-03-03T23:37:08.819Z,99128.19
2019-03-03T23:42:12.360Z,99126.56
2019-03-03T23:47:15.925Z,99128.25
2019-03-03T23:52:19.511Z,99130.80
2019-03-03T23:57:23.539Z,99129.48
